Terminal Aerodrome Forecast
Issued by NWS

Home | Current Version | Previous Version | Graphics & Text | Print | Product List | Glossary On
Versions: 1 2 3 4 5 6 7 8 9 10 11 12 13 14 15
000
FTUS43 KBIS 150500 RRA
TAFJMS
TAF
KJMS 150546Z 1506/1606 34015KT P6SM OVC006
     FM151200 35024G32KT P6SM OVC015
     FM160000 33011KT P6SM OVC050=

USA.gov is the U.S. government's official web portal to all federal, state and local government web resources and services.